createdAt,value
2023-03-17T00:00:17.186Z,20.25
2023-03-17T00:01:17.171Z,20.23
2023-03-17T00:02:17.216Z,20.22
2023-03-17T00:03:17.125Z,20.27
2023-03-17T00:04:17.095Z,20.25
2023-03-17T00:05:17.060Z,20.22
2023-03-17T00:06:17.026Z,20.24
2023-03-17T00:07:17.039Z,20.19
2023-03-17T00:08:16.980Z,20.22
2023-03-17T00:09:16.972Z,20.22
2023-03-17T00:10:16.937Z,20.24
2023-03-17T00:11:16.900Z,20.22
2023-03-17T00:12:16.943Z,20.25
2023-03-17T00:13:16.870Z,20.18
2023-03-17T00:14:16.863Z,20.28
2023-03-17T00:15:16.810Z,20.24
2023-03-17T00:16:16.982Z,20.23
2023-03-17T00:17:16.795Z,20.22
2023-03-17T00:18:16.751Z,20.21
2023-03-17T00:19:16.734Z,20.25
2023-03-17T00:20:16.713Z,20.21
2023-03-17T00:21:16.684Z,20.28
2023-03-17T00:22:16.737Z,20.24
2023-03-17T00:23:16.648Z,20.27
2023-03-17T00:24:16.635Z,20.25
2023-03-17T00:25:16.613Z,20.33
2023-03-17T00:26:16.614Z,20.30
2023-03-17T00:27:16.581Z,20.28
2023-03-17T00:28:16.549Z,20.30
2023-03-17T00:29:16.518Z,20.29
2023-03-17T00:30:16.507Z,20.27
2023-03-17T00:31:16.613Z,20.28
2023-03-17T00:32:16.491Z,20.33
2023-03-17T00:33:16.455Z,20.32
2023-03-17T00:34:16.425Z,20.33
2023-03-17T00:35:16.415Z,20.29
2023-03-17T00:36:16.376Z,20.29
2023-03-17T00:37:16.425Z,20.33
2023-03-17T00:38:16.350Z,20.28
2023-03-17T00:39:16.353Z,20.25
2023-03-17T00:40:16.337Z,20.36
2023-03-17T00:41:16.293Z,20.29
2023-03-17T00:42:16.272Z,20.31
2023-03-17T00:43:16.267Z,20.31
2023-03-17T00:44:16.209Z,20.29
2023-03-17T00:45:16.190Z,20.31
2023-03-17T00:46:16.214Z,20.31
2023-03-17T00:47:16.176Z,20.30
2023-03-17T00:48:16.107Z,20.33
2023-03-17T00:49:17.748Z,20.29
2023-03-17T00:50:16.094Z,20.34
2023-03-17T00:51:16.028Z,20.30
2023-03-17T00:52:16.064Z,20.34
2023-03-17T00:53:15.998Z,20.35
2023-03-17T00:54:15.997Z,20.40
2023-03-17T00:55:15.955Z,20.41
2023-03-17T00:57:15.934Z,20.38
2023-03-17T00:58:30.957Z,20.37
2023-03-17T00:59:18.170Z,20.41
2023-03-17T01:00:15.888Z,20.45
2023-03-17T01:01:16.021Z,20.41
2023-03-17T01:02:15.867Z,20.41
2023-03-17T01:03:15.792Z,20.46
2023-03-17T01:04:15.828Z,20.40
2023-03-17T01:05:15.741Z,20.43
2023-03-17T01:06:15.725Z,20.41
2023-03-17T01:07:15.692Z,20.42
2023-03-17T01:08:15.743Z,20.39
2023-03-17T01:09:15.681Z,20.40
2023-03-17T01:10:15.649Z,20.36
2023-03-17T01:11:15.605Z,20.34
2023-03-17T01:12:15.578Z,20.37
2023-03-17T01:13:15.583Z,20.36
2023-03-17T01:14:15.549Z,20.41
2023-03-17T01:15:15.515Z,20.39
2023-03-17T01:16:15.756Z,20.40
2023-03-17T01:17:15.507Z,20.37
2023-03-17T01:18:15.525Z,20.39
2023-03-17T01:19:15.453Z,20.43
2023-03-17T01:20:15.458Z,20.45
2023-03-17T01:21:15.417Z,20.43
2023-03-17T01:22:15.381Z,20.39
2023-03-17T01:23:15.365Z,20.39
2023-03-17T01:24:15.336Z,20.39
2023-03-17T01:25:15.307Z,20.40
2023-03-17T01:26:15.320Z,20.37
2023-03-17T01:27:15.262Z,20.37
2023-03-17T01:28:15.254Z,20.42
2023-03-17T01:29:15.238Z,20.42
2023-03-17T01:30:15.230Z,20.39
2023-03-17T01:31:15.222Z,20.37
2023-03-17T01:32:15.156Z,20.45
2023-03-17T01:33:16.839Z,20.42
2023-03-17T01:34:15.104Z,20.42
2023-03-17T01:35:15.109Z,20.43
2023-03-17T01:36:15.061Z,20.45
2023-03-17T01:37:15.048Z,20.43
2023-03-17T01:38:15.080Z,20.49
2023-03-17T01:39:15.004Z,20.45
2023-03-17T01:40:14.977Z,20.48
2023-03-17T01:41:14.971Z,20.48
2023-03-17T01:42:14.936Z,20.45
2023-03-17T01:43:15.446Z,20.45
2023-03-17T01:44:14.891Z,20.43
2023-03-17T01:45:14.876Z,20.42
2023-03-17T01:46:14.874Z,20.42
2023-03-17T01:47:14.838Z,20.46
2023-03-17T01:48:14.819Z,20.45
2023-03-17T01:49:14.772Z,20.46
2023-03-17T01:50:14.782Z,20.46
2023-03-17T01:51:14.744Z,20.46
2023-03-17T01:52:14.728Z,20.51
2023-03-17T01:53:14.747Z,20.46
2023-03-17T01:54:14.739Z,20.48
2023-03-17T01:55:14.658Z,20.48
2023-03-17T01:56:14.650Z,20.45
2023-03-17T01:57:14.627Z,20.45
2023-03-17T01:58:14.634Z,20.49
2023-03-17T01:59:14.565Z,20.48
2023-03-17T02:00:14.566Z,20.49
2023-03-17T02:01:14.554Z,20.51
2023-03-17T02:02:14.491Z,20.49
2023-03-17T02:03:14.462Z,20.50
2023-03-17T02:04:14.546Z,20.46
2023-03-17T02:05:14.468Z,20.48
2023-03-17T02:06:14.390Z,20.54
2023-03-17T02:07:14.360Z,20.52
2023-03-17T02:08:14.361Z,20.57
2023-03-17T02:09:14.331Z,20.49
2023-03-17T02:10:14.347Z,20.46
2023-03-17T02:11:14.304Z,20.48
2023-03-17T02:12:14.268Z,20.43
2023-03-17T02:13:14.312Z,20.49
2023-03-17T02:14:14.278Z,20.46
2023-03-17T02:15:14.237Z,20.52
2023-03-17T02:16:14.213Z,20.52
2023-03-17T02:17:14.175Z,20.48
2023-03-17T02:18:14.197Z,20.51
2023-03-17T02:19:14.144Z,20.48
2023-03-17T02:20:14.115Z,20.51
2023-03-17T02:21:14.104Z,20.49
2023-03-17T02:22:14.073Z,20.49
2023-03-17T02:23:14.063Z,20.51
2023-03-17T02:24:14.044Z,20.48
2023-03-17T02:25:14.024Z,20.49
2023-03-17T02:26:14.024Z,20.49
2023-03-17T02:27:13.979Z,20.57
2023-03-17T02:28:13.952Z,20.52
2023-03-17T02:29:13.936Z,20.54
2023-03-17T02:30:13.888Z,20.52
2023-03-17T02:31:13.923Z,20.55
2023-03-17T02:32:13.872Z,20.40
2023-03-17T02:33:13.841Z,20.32
2023-03-17T02:34:13.809Z,20.27
2023-03-17T02:35:13.804Z,20.05
2023-03-17T02:36:13.842Z,20.02
2023-03-17T02:37:13.752Z,19.85
2023-03-17T02:38:13.744Z,19.69
2023-03-17T02:39:13.760Z,19.49
2023-03-17T02:40:13.685Z,19.45
2023-03-17T02:41:13.688Z,19.20
2023-03-17T02:42:13.653Z,19.12
2023-03-17T02:43:13.655Z,18.96
2023-03-17T02:44:13.637Z,18.83
2023-03-17T02:45:13.613Z,18.85
2023-03-17T02:46:13.649Z,18.67
2023-03-17T02:47:13.616Z,18.66
2023-03-17T02:48:13.564Z,18.53
2023-03-17T02:49:13.557Z,18.39
2023-03-17T02:50:13.551Z,18.42
2023-03-17T02:51:13.522Z,18.25
2023-03-17T02:52:13.497Z,18.25
2023-03-17T02:53:13.500Z,18.21
2023-03-17T02:54:13.942Z,18.25
2023-03-17T02:55:13.466Z,18.01
2023-03-17T02:56:13.441Z,18.00
2023-03-17T02:57:13.424Z,17.83
2023-03-17T02:58:13.408Z,17.76
2023-03-17T02:59:13.422Z,17.76
2023-03-17T03:00:13.375Z,17.81
2023-03-17T03:01:13.415Z,17.67
2023-03-17T03:02:13.367Z,17.66
2023-03-17T03:03:13.349Z,17.47
2023-03-17T03:04:13.401Z,17.64
2023-03-17T03:05:13.316Z,17.58
2023-03-17T03:06:13.292Z,17.46
2023-03-17T03:07:13.292Z,17.49
2023-03-17T03:08:13.286Z,17.45
2023-03-17T03:09:13.294Z,17.41
2023-03-17T03:10:13.253Z,17.33
2023-03-17T03:11:13.272Z,17.12
2023-03-17T03:12:13.240Z,17.32
2023-03-17T03:13:13.231Z,17.20
2023-03-17T03:14:13.227Z,17.33
2023-03-17T03:15:16.954Z,17.18
2023-03-17T03:16:13.228Z,17.06
2023-03-17T03:17:13.180Z,17.14
2023-03-17T03:18:13.173Z,17.12
2023-03-17T03:19:13.141Z,17.03
2023-03-17T03:20:13.159Z,17.14
2023-03-17T03:21:13.182Z,16.96
2023-03-17T03:22:13.133Z,17.04
2023-03-17T03:23:13.120Z,17.04
2023-03-17T03:24:13.106Z,17.04
2023-03-17T03:25:13.099Z,16.87
2023-03-17T03:26:13.113Z,17.08
2023-03-17T03:27:13.112Z,16.88
2023-03-17T03:28:13.051Z,16.94
2023-03-17T03:29:13.056Z,16.85
2023-03-17T03:30:13.058Z,16.97
2023-03-17T03:31:13.059Z,17.02
2023-03-17T03:32:13.016Z,16.89
2023-03-17T03:33:13.026Z,16.98
2023-03-17T03:34:12.995Z,16.85
2023-03-17T03:35:12.993Z,16.88
2023-03-17T03:36:12.962Z,17.03
2023-03-17T03:37:12.973Z,16.74
2023-03-17T03:38:12.942Z,16.96
2023-03-17T03:39:14.424Z,16.83
2023-03-17T03:40:12.962Z,17.10
2023-03-17T03:41:12.919Z,16.94
2023-03-17T03:42:12.892Z,16.96
2023-03-17T03:43:22.471Z,16.97
2023-03-17T03:44:13.872Z,16.97
2023-03-17T03:45:12.864Z,17.15
2023-03-17T03:46:12.952Z,17.09
2023-03-17T03:47:12.830Z,17.14
2023-03-17T03:48:12.843Z,17.05
2023-03-17T03:49:12.800Z,17.15
2023-03-17T03:50:12.792Z,17.08
2023-03-17T03:51:12.814Z,17.02
2023-03-17T03:52:12.756Z,17.02
2023-03-17T03:53:12.742Z,17.06
2023-03-17T03:54:12.723Z,17.02
2023-03-17T03:55:12.782Z,17.08
2023-03-17T03:56:12.681Z,17.08
2023-03-17T03:57:12.685Z,17.11
2023-03-17T03:58:12.650Z,17.13
2023-03-17T03:59:12.650Z,17.24
2023-03-17T04:00:12.652Z,17.33
2023-03-17T04:01:12.625Z,17.36
2023-03-17T04:02:12.587Z,17.43
2023-03-17T04:03:12.694Z,17.48
2023-03-17T04:04:12.555Z,17.46
2023-03-17T04:05:12.570Z,17.61
2023-03-17T04:06:12.527Z,17.51
2023-03-17T04:07:12.523Z,17.64
2023-03-17T04:08:12.504Z,17.63
2023-03-17T04:09:12.480Z,17.66
2023-03-17T04:10:12.512Z,17.77
2023-03-17T04:11:12.432Z,17.90
2023-03-17T04:12:12.417Z,17.94
2023-03-17T04:13:12.409Z,17.78
2023-03-17T04:14:12.365Z,17.83
2023-03-17T04:15:12.371Z,17.79
2023-03-17T04:16:12.394Z,17.83
2023-03-17T04:17:12.343Z,17.98
2023-03-17T04:18:12.328Z,18.02
2023-03-17T04:19:12.414Z,18.04
2023-03-17T04:20:12.285Z,17.96
2023-03-17T04:21:12.271Z,17.94
2023-03-17T04:22:12.240Z,18.00
2023-03-17T04:23:12.217Z,18.01
2023-03-17T04:24:12.213Z,18.00
2023-03-17T04:25:12.233Z,17.99
2023-03-17T04:26:12.484Z,18.06
2023-03-17T04:27:12.155Z,17.97
2023-03-17T04:28:12.157Z,17.95
2023-03-17T04:29:12.122Z,18.05
2023-03-17T04:30:12.106Z,18.05
2023-03-17T04:31:12.277Z,18.06
2023-03-17T04:32:12.086Z,18.14
2023-03-17T04:33:12.083Z,17.91
2023-03-17T04:34:12.054Z,17.96
2023-03-17T04:35:12.058Z,17.99
2023-03-17T04:36:12.044Z,17.98
2023-03-17T04:37:12.004Z,17.98
2023-03-17T04:38:12.002Z,18.00
2023-03-17T04:39:11.958Z,18.01
2023-03-17T04:40:11.936Z,17.96
2023-03-17T04:41:11.943Z,17.94
2023-03-17T04:42:11.897Z,17.92
2023-03-17T04:43:11.958Z,18.22
2023-03-17T04:44:11.870Z,17.95
2023-03-17T04:45:11.874Z,17.98
2023-03-17T04:46:11.950Z,17.94
2023-03-17T04:47:11.807Z,17.92
2023-03-17T04:48:11.792Z,17.91
2023-03-17T04:49:11.778Z,17.96
2023-03-17T04:50:11.797Z,17.91
2023-03-17T04:51:12.046Z,17.93
2023-03-17T04:52:11.712Z,17.91
2023-03-17T04:53:11.703Z,17.90
2023-03-17T04:54:11.678Z,17.87
2023-03-17T04:55:11.648Z,17.85
2023-03-17T04:56:11.628Z,17.93
2023-03-17T04:57:11.620Z,17.97
2023-03-17T04:58:15.506Z,17.90
2023-03-17T04:59:12.616Z,17.86
2023-03-17T05:00:11.569Z,17.89
2023-03-17T05:01:11.650Z,17.87
2023-03-17T05:02:11.546Z,17.90
2023-03-17T05:03:26.087Z,17.96
2023-03-17T05:04:16.739Z,17.90
2023-03-17T05:05:12.501Z,17.99
2023-03-17T05:06:11.522Z,17.95
2023-03-17T05:07:11.467Z,17.89
2023-03-17T05:08:11.469Z,17.90
2023-03-17T05:09:11.462Z,17.98
2023-03-17T05:10:11.432Z,17.99
2023-03-17T05:11:11.413Z,18.04
2023-03-17T05:12:11.404Z,18.02
2023-03-17T05:13:11.382Z,17.99
2023-03-17T05:14:11.345Z,18.01
2023-03-17T05:15:11.348Z,17.98
2023-03-17T05:16:11.403Z,17.96
2023-03-17T05:17:11.306Z,17.94
2023-03-17T05:18:11.276Z,18.01
2023-03-17T05:19:11.276Z,17.90
2023-03-17T05:20:11.262Z,17.92
2023-03-17T06:48:09.767Z,18.51
2023-03-17T06:49:09.886Z,18.59
2023-03-17T06:50:09.797Z,18.61
2023-03-17T06:51:09.779Z,18.67
2023-03-17T06:52:09.670Z,18.75
2023-03-17T06:53:09.647Z,18.70
2023-03-17T06:55:09.628Z,18.72
2023-03-17T06:56:19.995Z,18.70
2023-03-17T06:58:09.594Z,18.72
2023-03-17T06:59:09.567Z,18.74
2023-03-17T07:00:09.514Z,18.77
2023-03-17T07:01:09.560Z,18.72
2023-03-17T07:02:09.573Z,18.71
2023-03-17T07:03:09.498Z,18.79
2023-03-17T07:04:09.523Z,18.79
2023-03-17T07:05:09.455Z,18.78
2023-03-17T07:06:09.422Z,18.76
2023-03-17T07:07:09.390Z,18.86
2023-03-17T07:08:09.429Z,18.86
2023-03-17T07:09:09.351Z,18.84
2023-03-17T07:10:09.357Z,18.80
2023-03-17T07:11:09.371Z,18.74
2023-03-17T07:12:09.327Z,18.70
2023-03-17T07:13:09.369Z,18.65
2023-03-17T07:14:09.446Z,18.62
2023-03-17T07:15:09.315Z,18.61
2023-03-17T07:16:09.326Z,18.58
2023-03-17T07:17:09.228Z,18.52
2023-03-17T07:18:09.244Z,18.50
2023-03-17T07:19:09.271Z,18.50
2023-03-17T07:20:09.166Z,18.50
2023-03-17T07:21:09.162Z,18.55
2023-03-17T07:22:09.196Z,18.53
2023-03-17T07:23:09.129Z,18.55
2023-03-17T07:24:09.110Z,18.53
2023-03-17T07:25:09.127Z,18.55
2023-03-17T07:26:09.084Z,18.53
2023-03-17T07:27:09.195Z,18.50
2023-03-17T07:28:09.082Z,18.46
2023-03-17T07:29:09.956Z,18.49
2023-03-17T07:30:09.940Z,18.46
2023-03-17T07:31:10.033Z,18.48
2023-03-17T07:32:09.000Z,18.51
2023-03-17T07:33:09.980Z,18.45
2023-03-17T07:34:09.535Z,18.42
2023-03-17T07:35:09.191Z,18.40
2023-03-17T07:37:09.024Z,18.40
2023-03-17T07:38:08.888Z,18.36
2023-03-17T07:39:11.477Z,18.43
2023-03-17T07:40:08.842Z,18.44
2023-03-17T07:41:08.804Z,18.35
2023-03-17T07:42:09.463Z,18.32
2023-03-17T07:43:08.783Z,18.35
2023-03-17T07:44:08.709Z,18.43
2023-03-17T07:45:08.854Z,18.53
2023-03-17T07:46:08.800Z,18.35
2023-03-17T07:47:08.645Z,18.40
2023-03-17T07:48:08.645Z,18.43
2023-03-17T07:49:08.923Z,18.44
2023-03-17T07:50:08.596Z,18.43
2023-03-17T07:51:08.603Z,18.48
2023-03-17T07:52:08.639Z,18.47
2023-03-17T07:53:08.555Z,18.43
2023-03-17T07:54:08.516Z,18.39
2023-03-17T07:55:08.556Z,18.43
2023-03-17T07:56:08.568Z,18.42
2023-03-17T07:57:08.445Z,18.44
2023-03-17T07:58:08.441Z,18.47
2023-03-17T07:59:08.381Z,18.42
2023-03-17T08:00:08.476Z,18.45
2023-03-17T08:01:08.365Z,18.42
2023-03-17T08:02:08.410Z,18.39
2023-03-17T08:03:10.619Z,18.32
2023-03-17T08:04:08.367Z,18.41
2023-03-17T08:05:08.242Z,18.35
2023-03-17T08:06:08.237Z,18.39
2023-03-17T08:07:08.243Z,18.41
2023-03-17T08:08:08.168Z,18.39
2023-03-17T08:09:08.967Z,18.33
2023-03-17T08:10:08.175Z,18.35
2023-03-17T08:11:08.097Z,18.39
2023-03-17T08:12:08.120Z,18.35
2023-03-17T08:13:08.047Z,18.34
2023-03-17T08:14:08.040Z,18.31
2023-03-17T08:15:07.979Z,18.23
2023-03-17T08:16:08.002Z,18.33
2023-03-17T08:17:08.095Z,18.21
2023-03-17T08:18:08.061Z,18.31
2023-03-17T08:19:08.486Z,18.31
2023-03-17T08:20:07.900Z,18.34
2023-03-17T08:21:08.193Z,18.28
2023-03-17T08:22:07.792Z,18.37
2023-03-17T08:23:07.755Z,18.39
2023-03-17T08:24:07.895Z,18.28
2023-03-17T08:25:07.930Z,18.29
2023-03-17T08:26:07.748Z,18.23
2023-03-17T08:27:08.456Z,18.24
2023-03-17T08:41:07.753Z,18.17
2023-03-17T09:48:06.084Z,18.43
2023-03-17T09:49:05.973Z,18.40
2023-03-17T09:50:05.127Z,18.39
2023-03-17T09:51:05.023Z,18.34
2023-03-17T09:52:04.868Z,18.24
2023-03-17T09:53:04.915Z,18.36
2023-03-17T09:54:04.787Z,18.37
2023-03-17T09:55:04.750Z,18.41
2023-03-17T09:56:04.764Z,18.34
2023-03-17T09:57:04.734Z,18.21
2023-03-17T09:58:04.635Z,18.33
2023-03-17T09:59:04.602Z,18.41
2023-03-17T10:00:04.556Z,18.30
2023-03-17T10:01:04.527Z,18.32
2023-03-17T10:02:05.650Z,18.24
2023-03-17T10:03:04.449Z,18.26
2023-03-17T10:04:04.427Z,18.30
2023-03-17T10:05:04.422Z,18.26
2023-03-17T10:06:04.365Z,18.21
2023-03-17T10:07:04.388Z,18.18
2023-03-17T10:08:04.382Z,18.23
2023-03-17T10:09:04.265Z,18.27
2023-03-17T10:10:04.254Z,18.21
2023-03-17T10:11:04.212Z,18.26
2023-03-17T10:12:04.173Z,18.21
2023-03-17T10:13:04.163Z,18.23
2023-03-17T10:15:04.059Z,18.23
2023-03-17T10:16:04.063Z,18.12
2023-03-17T10:17:04.029Z,18.18
2023-03-17T10:18:04.005Z,18.18
2023-03-17T10:19:03.954Z,18.16
2023-03-17T10:20:03.873Z,18.11
2023-03-17T10:21:03.845Z,18.07
2023-03-17T10:22:03.813Z,18.07
2023-03-17T10:23:03.832Z,18.11
2023-03-17T10:24:03.746Z,18.09
2023-03-17T10:25:03.989Z,18.06
2023-03-17T10:26:03.716Z,18.12
2023-03-17T10:27:03.646Z,18.09
2023-03-17T10:28:03.641Z,17.99
2023-03-17T10:29:03.582Z,18.10
2023-03-17T10:31:03.667Z,18.04
2023-03-17T10:32:03.561Z,18.04
2023-03-17T10:33:03.559Z,17.99
2023-03-17T10:34:03.430Z,18.13
2023-03-17T10:35:03.348Z,18.07
2023-03-17T10:36:03.357Z,18.01
2023-03-17T10:37:03.285Z,18.00
2023-03-17T10:38:14.064Z,17.93
2023-03-17T10:39:04.212Z,17.94
2023-03-17T10:40:03.211Z,17.82
2023-03-17T10:41:03.240Z,17.80
2023-03-17T10:42:03.125Z,17.85
2023-03-17T10:43:03.088Z,17.79
2023-03-17T10:44:03.061Z,17.75
2023-03-17T10:45:03.031Z,17.72
2023-03-17T10:46:02.999Z,17.66
2023-03-17T10:47:03.076Z,17.54
2023-03-17T10:48:02.964Z,17.50
2023-03-17T10:49:02.900Z,17.38
2023-03-17T10:50:02.875Z,17.30
2023-03-17T10:51:02.820Z,17.30
2023-03-17T10:52:02.901Z,17.27
2023-03-17T10:53:02.786Z,17.26
2023-03-17T10:54:02.731Z,17.15
2023-03-17T10:55:03.507Z,17.20
2023-03-17T10:56:02.692Z,17.17
2023-03-17T10:57:02.696Z,17.12
2023-03-17T10:58:02.642Z,17.18
2023-03-17T10:59:02.661Z,17.18
2023-03-17T11:00:02.608Z,17.14
2023-03-17T11:01:02.573Z,17.09
2023-03-17T11:02:02.540Z,17.09
2023-03-17T11:03:02.511Z,17.15
2023-03-17T11:04:02.613Z,17.09
2023-03-17T11:05:02.444Z,17.09
2023-03-17T11:06:02.421Z,17.14
2023-03-17T11:07:02.484Z,17.09
2023-03-17T11:08:02.383Z,17.09
2023-03-17T11:09:03.140Z,17.03
2023-03-17T11:10:03.064Z,17.09
2023-03-17T11:11:02.255Z,17.14
2023-03-17T11:12:02.274Z,17.18
2023-03-17T11:13:02.288Z,17.18
2023-03-17T11:14:02.253Z,17.17
2023-03-17T11:15:02.150Z,17.18
2023-03-17T11:16:02.319Z,17.20
2023-03-17T11:17:03.014Z,17.26
2023-03-17T11:18:02.108Z,17.26
2023-03-17T11:19:02.064Z,17.29
2023-03-17T11:20:02.031Z,17.26
2023-03-17T11:21:02.051Z,17.34
2023-03-17T11:22:01.976Z,17.32
2023-03-17T11:23:02.023Z,17.36
2023-03-17T11:24:01.941Z,17.35
2023-03-17T11:25:01.962Z,17.36
2023-03-17T11:26:01.870Z,17.36
2023-03-17T11:27:01.856Z,17.36
2023-03-17T11:28:01.901Z,17.40
2023-03-17T11:29:01.796Z,17.36
2023-03-17T11:30:01.794Z,17.40
2023-03-17T11:31:01.847Z,17.40
2023-03-17T11:32:01.791Z,17.48
2023-03-17T11:33:01.760Z,17.56
2023-03-17T11:34:01.670Z,17.53
2023-03-17T11:35:01.687Z,17.59
2023-03-17T11:36:01.649Z,17.65
2023-03-17T11:37:01.608Z,17.67
2023-03-17T11:38:01.604Z,17.73
2023-03-17T11:39:01.545Z,17.74
2023-03-17T11:40:01.522Z,17.77
2023-03-17T11:41:01.508Z,17.70
2023-03-17T11:42:01.533Z,17.76
2023-03-17T11:43:01.477Z,17.82
2023-03-17T11:44:01.524Z,17.76
2023-03-17T11:45:02.174Z,17.79
2023-03-17T11:46:02.569Z,17.83
2023-03-17T11:47:01.368Z,17.88
2023-03-17T11:48:01.312Z,17.91
2023-03-17T11:49:01.326Z,17.89
2023-03-17T11:50:01.249Z,18.01
2023-03-17T11:51:01.290Z,18.05
2023-03-17T11:52:01.210Z,18.00
2023-03-17T11:53:01.256Z,18.04
2023-03-17T11:54:01.283Z,18.12
2023-03-17T11:55:01.139Z,18.14
2023-03-17T11:56:01.120Z,18.21
2023-03-17T11:57:01.090Z,18.17
2023-03-17T11:58:03.031Z,18.20
2023-03-17T11:59:01.026Z,18.26
2023-03-17T12:00:01.078Z,18.43
2023-03-17T12:01:01.022Z,18.49
2023-03-17T12:02:00.935Z,18.52
2023-03-17T12:03:00.929Z,18.51
2023-03-17T12:04:00.977Z,18.58
2023-03-17T12:05:01.114Z,18.58
2023-03-17T12:06:00.854Z,18.55
2023-03-17T12:07:00.812Z,18.68
2023-03-17T12:08:00.782Z,18.66
2023-03-17T12:09:00.748Z,18.68
2023-03-17T12:10:00.716Z,18.71
2023-03-17T12:11:00.681Z,18.69
2023-03-17T12:12:00.649Z,18.78
2023-03-17T12:13:00.630Z,18.75
2023-03-17T12:14:00.586Z,18.67
2023-03-17T12:15:00.562Z,18.75
2023-03-17T12:16:00.603Z,18.58
2023-03-17T12:17:00.456Z,18.63
2023-03-17T12:18:00.426Z,18.63
2023-03-17T12:19:00.564Z,18.63
2023-03-17T12:20:00.396Z,18.58
2023-03-17T12:21:00.297Z,18.64
2023-03-17T12:22:01.075Z,18.58
2023-03-17T12:23:00.298Z,18.67
2023-03-17T12:24:00.261Z,18.68
2023-03-17T12:25:00.197Z,18.61
2023-03-17T12:26:00.199Z,18.65
2023-03-17T12:27:01.085Z,18.59
2023-03-17T12:28:00.134Z,18.65
2023-03-17T12:29:00.138Z,18.61
2023-03-17T12:30:00.320Z,18.57
2023-03-17T12:31:00.081Z,18.57
2023-03-17T12:31:59.998Z,18.61
2023-03-17T12:33:00.002Z,18.57
2023-03-17T12:33:59.940Z,18.57
2023-03-17T12:34:59.909Z,18.57
2023-03-17T12:35:59.876Z,18.51
2023-03-17T12:36:59.845Z,18.57
2023-03-17T12:38:00.476Z,18.56
2023-03-17T12:38:59.819Z,18.54
2023-03-17T12:39:59.785Z,18.51
2023-03-17T12:40:59.754Z,18.54
2023-03-17T12:41:59.788Z,18.56
2023-03-17T12:42:59.735Z,18.54
2023-03-17T12:43:59.706Z,18.57
2023-03-17T12:44:59.685Z,18.53
2023-03-17T12:45:59.669Z,18.56
2023-03-17T12:46:59.621Z,18.54
2023-03-17T12:47:59.586Z,18.56
2023-03-17T12:49:00.982Z,18.51
2023-03-17T12:49:59.560Z,18.54
2023-03-17T12:50:59.510Z,18.54
2023-03-17T12:51:59.528Z,18.54
2023-03-17T12:52:59.526Z,18.57
2023-03-17T12:53:59.482Z,18.51
2023-03-17T12:54:59.526Z,18.48
2023-03-17T12:55:59.397Z,18.54
2023-03-17T12:56:59.485Z,18.51
2023-03-17T12:57:59.362Z,18.45
2023-03-17T12:58:59.420Z,18.50
2023-03-17T12:59:59.326Z,18.50
2023-03-17T13:00:59.289Z,18.51
2023-03-17T13:02:00.139Z,18.47
2023-03-17T13:03:00.070Z,18.44
2023-03-17T13:03:59.210Z,18.40
2023-03-17T13:04:59.228Z,18.50
2023-03-17T13:05:59.201Z,18.37
2023-03-17T13:06:59.175Z,18.33
2023-03-17T13:07:59.163Z,18.39
2023-03-17T13:08:59.119Z,18.30
2023-03-17T13:09:59.097Z,18.30
2023-03-17T13:10:59.073Z,18.27
2023-03-17T13:11:59.041Z,18.25
2023-03-17T13:12:59.003Z,18.21
2023-03-17T13:13:58.972Z,18.22
2023-03-17T13:14:58.975Z,18.31
2023-03-17T13:15:59.016Z,18.33
2023-03-17T13:16:58.889Z,18.33
2023-03-17T13:17:59.556Z,18.36
2023-03-17T13:18:58.849Z,18.28
2023-03-17T13:19:58.848Z,18.31
2023-03-17T13:20:58.813Z,18.25
2023-03-17T13:21:58.782Z,18.23
2023-03-17T13:22:58.771Z,18.24
2023-03-17T13:23:58.748Z,18.30
2023-03-17T13:24:58.709Z,18.23
2023-03-17T13:25:58.760Z,18.22
2023-03-17T13:26:58.653Z,18.25
2023-03-17T13:27:58.638Z,18.21
2023-03-17T13:28:58.597Z,18.16
2023-03-17T13:29:58.621Z,18.21
2023-03-17T13:30:58.622Z,18.19
2023-03-17T13:31:58.558Z,18.15
2023-03-17T13:32:58.531Z,18.24
2023-03-17T13:33:58.465Z,18.18
2023-03-17T13:34:58.464Z,18.21
2023-03-17T13:35:58.466Z,18.18
2023-03-17T13:36:58.424Z,18.18
2023-03-17T13:37:58.394Z,18.18
2023-03-17T13:39:17.778Z,18.16
2023-03-17T13:39:59.354Z,18.16
2023-03-17T13:40:58.349Z,18.15
2023-03-17T13:42:01.156Z,18.21
2023-03-17T13:42:59.346Z,18.22
2023-03-17T13:43:58.274Z,18.23
2023-03-17T13:44:58.289Z,18.23
2023-03-17T13:45:58.239Z,18.24
2023-03-17T13:46:58.233Z,18.24
2023-03-17T13:47:58.177Z,18.22
2023-03-17T13:48:58.177Z,18.20
2023-03-17T13:49:58.157Z,18.23
2023-03-17T13:50:59.069Z,18.27
2023-03-17T13:52:00.424Z,18.27
2023-03-17T13:52:58.103Z,18.27
2023-03-17T13:53:58.068Z,18.32
2023-03-17T13:54:58.118Z,18.33
2023-03-17T13:55:58.072Z,18.33
2023-03-17T13:56:58.032Z,18.41
2023-03-17T13:57:58.028Z,18.39
2023-03-17T13:58:57.969Z,18.39
2023-03-17T13:59:57.988Z,18.44
2023-03-17T14:00:57.955Z,18.33
2023-03-17T14:01:57.908Z,18.39
2023-03-17T14:02:57.900Z,18.38
2023-03-17T14:03:57.907Z,18.42
2023-03-17T14:04:57.905Z,18.39
2023-03-17T14:05:57.864Z,18.41
2023-03-17T14:06:57.868Z,18.41
2023-03-17T14:07:57.835Z,18.41
2023-03-17T14:08:57.795Z,18.44
2023-03-17T14:09:57.774Z,18.44
2023-03-17T14:10:57.803Z,18.47
2023-03-17T14:11:57.751Z,18.41
2023-03-17T14:12:57.721Z,18.45
2023-03-17T14:13:57.712Z,18.45
2023-03-17T14:14:57.697Z,18.51
2023-03-17T14:15:57.744Z,18.45
2023-03-17T14:16:57.668Z,18.47
2023-03-17T14:17:57.656Z,18.54
2023-03-17T14:18:57.640Z,18.51
2023-03-17T14:19:57.601Z,18.51
2023-03-17T14:20:57.609Z,18.47
2023-03-17T14:21:57.569Z,18.56
2023-03-17T14:22:57.538Z,18.53
2023-03-17T14:23:57.507Z,18.57
2023-03-17T14:24:57.535Z,18.59
2023-03-17T14:25:57.495Z,18.60
2023-03-17T14:26:57.468Z,18.59
2023-03-17T14:27:57.460Z,18.59
2023-03-17T14:28:58.123Z,18.59
2023-03-17T14:29:57.405Z,18.57
2023-03-17T14:30:57.435Z,18.66
2023-03-17T14:31:57.397Z,18.60
2023-03-17T14:32:57.359Z,18.63
2023-03-17T14:33:57.344Z,18.63
2023-03-17T14:34:57.376Z,18.65
2023-03-17T14:35:57.328Z,18.62
2023-03-17T14:36:57.296Z,18.68
2023-03-17T14:37:57.244Z,18.68
2023-03-17T14:38:57.210Z,18.68
2023-03-17T14:39:57.209Z,18.61
2023-03-17T14:40:57.215Z,18.66
2023-03-17T14:41:57.144Z,18.66
2023-03-17T14:42:57.151Z,18.62
2023-03-17T14:43:57.120Z,18.66
2023-03-17T14:44:57.043Z,18.65
2023-03-17T14:45:57.040Z,18.66
2023-03-17T14:46:57.018Z,18.65
2023-03-17T14:47:57.634Z,18.64
2023-03-17T14:48:56.969Z,18.66
2023-03-17T14:49:56.931Z,18.72
2023-03-17T14:50:56.935Z,18.70
2023-03-17T14:51:56.889Z,18.70
2023-03-17T14:52:56.930Z,18.66
2023-03-17T14:53:56.798Z,18.71
2023-03-17T14:54:56.817Z,18.74
2023-03-17T14:55:56.786Z,18.68
2023-03-17T14:56:56.727Z,18.71
2023-03-17T14:57:56.694Z,18.72
2023-03-17T14:58:56.736Z,18.72
2023-03-17T14:59:56.700Z,18.70
2023-03-17T15:00:56.696Z,18.73
2023-03-17T15:01:56.682Z,18.74
2023-03-17T15:02:56.577Z,18.65
2023-03-17T15:03:56.590Z,18.75
2023-03-17T15:04:56.568Z,18.77
2023-03-17T15:05:56.549Z,18.73
2023-03-17T15:06:56.471Z,18.82
2023-03-17T15:07:56.471Z,18.71
2023-03-17T15:08:56.441Z,18.54
2023-03-17T15:09:56.404Z,18.11
2023-03-17T15:10:56.377Z,17.51
2023-03-17T15:11:56.340Z,16.96
2023-03-17T15:12:56.312Z,16.57
2023-03-17T15:13:56.289Z,16.30
2023-03-17T15:14:56.210Z,16.06
2023-03-17T15:15:56.215Z,15.90
2023-03-17T15:16:56.208Z,15.76
2023-03-17T15:17:56.625Z,15.86
2023-03-17T15:18:56.012Z,16.09
2023-03-17T15:19:55.982Z,16.33
2023-03-17T15:20:56.012Z,16.54
2023-03-17T15:21:55.913Z,16.69
2023-03-17T15:22:56.627Z,16.93
2023-03-17T15:23:55.812Z,17.07
2023-03-17T15:24:55.833Z,17.23
2023-03-17T15:25:55.744Z,17.30
2023-03-17T15:26:55.720Z,17.47
2023-03-17T15:27:55.657Z,17.56
2023-03-17T15:28:55.621Z,17.71
2023-03-17T15:29:55.587Z,17.79
2023-03-17T15:30:56.007Z,17.83
2023-03-17T15:31:55.594Z,17.98
2023-03-17T15:32:55.515Z,18.04
2023-03-17T15:33:55.463Z,18.18
2023-03-17T15:34:55.428Z,18.26
2023-03-17T15:35:55.543Z,18.25
2023-03-17T15:36:56.100Z,18.36
2023-03-17T15:37:56.130Z,18.37
2023-03-17T15:38:55.322Z,18.36
2023-03-17T15:39:55.290Z,18.41
2023-03-17T15:40:55.263Z,18.41
2023-03-17T15:41:55.333Z,18.49
2023-03-17T15:42:55.246Z,18.46
2023-03-17T15:43:55.217Z,18.52